Holton, Michigan
Current Conditions -  °F | °C
As of 9:35 PM on Saturday 20 Dec 2014 (Local Time) from KFFX Reporting Station
Haze Haze  
Wind Chill: 29°   Ceiling: 1400
Heat Index: 29°   Visibility: 2.5mi
Dew Point: 28°   Wind: 3mph
Humidity: 98%   Direction: 140°SE
Pressure: 30.25"   Gusts: NA
Location:  43.41°N, 86.08°W
Report Text: KFFX 210235Z AUTO 14003KT 2 1/2SM BR OVC014 M02/M02 A3025 RMK AO2 T10171020
Loading
Personal Weather Stations






























Interactive Weather Map New forecast layout! Learn more

10-Day Weather Forecast

Advertisements
Track Severe Weather on mobile